If you wish to contribute or participate in the discussions about articles you are invited to join SKYbrary as a registered user

 Actions

Ballina Byron Gateway Airport

From SKYbrary Wiki

YBNA
Airport
ICAO: YBNA – IATA: BNK
Summary
Name Ballina Byron Gateway Airport
Region Asia and Pacific
Territory "YB" is not in the list (AG, AN, AY, BG, BI, BK, C, CT, DA, DB, ...) of allowed values for the "ICAO Territory" property.
Location , New South Wales
Serving Ballina Byron Bay
Elevation 2.134 m
7 ft
7 ft2.134 m
Type medium airport
Coordinates 28° 50' 2.00" S, 153° 33' 45.00" E
Runways
Designator Length Width Surface ROPS
6/24 1900 m6,233.596 ft
30 m98.425 ft
ASP yes/yes


METAR
Observation YBNA 251800Z AUTO 33005KT 290V350 9999 // NCD 25/22 Q1012
Station Ballina Byron Gateway Airport
Date/Time 25 March 2019 18:00:00
Wind direction 330°
Wind speed 05 kts
Lowest cloud amount no clouds detected
Temperature 25°C
Dew point 22°C
Humidity 83%
QNH 1012 hPa
Weather condition n/a